Time;durP1;ratioP1;P1;durP2;ratioP2;P2;SDS_P1;SDS_P2;PMS_P1;PMS_P2;Temp;Humidity;BMP_temperature;BMP_pressure;BME280_temperature;BME280_humidity;BME280_pressure;Samples;Min_cycle;Max_cycle;Signal;HPM_P1;HPM_P2
2021/05/05 00:01:00;;;;;;;2.58;0.88;;;16.00;70.30;;;;;;5098810;28;20182;-71
2021/05/05 00:03:26;;;;;;;0.80;0.80;;;16.00;69.70;;;;;;5103260;28;20192;-71
2021/05/05 00:05:53;;;;;;;0.93;0.93;;;16.00;69.90;;;;;;5097298;28;20479;-71
2021/05/05 00:08:21;;;;;;;2.15;1.02;;;16.00;69.70;;;;;;5095910;28;20240;-71
2021/05/05 00:10:47;;;;;;;1.65;1.13;;;16.00;70.30;;;;;;5092045;28;20212;-71
2021/05/05 00:13:14;;;;;;;1.63;1.00;;;15.90;70.90;;;;;;5101975;28;20676;-73
2021/05/05 00:15:39;;;;;;;0.88;0.70;;;15.80;70.50;;;;;;5095273;28;20584;-72
2021/05/05 00:18:05;;;;;;;0.80;0.80;;;15.80;70.50;;;;;;5101596;28;20178;-71
2021/05/05 00:20:32;;;;;;;0.70;0.70;;;15.80;70.70;;;;;;5097467;28;20182;-71
2021/05/05 00:22:58;;;;;;;5.55;1.02;;;15.80;70.70;;;;;;5100403;28;20189;-71
2021/05/05 00:25:24;;;;;;;0.95;0.95;;;15.80;70.80;;;;;;5097849;28;20225;-71
2021/05/05 00:27:51;;;;;;;1.20;0.70;;;15.80;71.20;;;;;;5103083;28;20265;-71
2021/05/05 00:30:17;;;;;;;1.27;0.93;;;15.80;70.50;;;;;;5101277;28;20210;-71
2021/05/05 00:32:43;;;;;;;0.80;0.80;;;15.80;70.50;;;;;;5099152;28;20190;-72
2021/05/05 00:35:10;;;;;;;0.65;0.65;;;15.80;70.60;;;;;;5097092;28;20179;-71
2021/05/05 00:37:35;;;;;;;0.80;0.80;;;15.80;71.40;;;;;;5100403;28;20188;-72
2021/05/05 00:40:03;;;;;;;2.15;0.90;;;15.80;71.40;;;;;;5102719;28;20670;-72
2021/05/05 00:42:28;;;;;;;0.90;0.90;;;15.70;71.80;;;;;;5102740;28;20181;-71
2021/05/05 00:44:59;;;;;;;0.80;0.80;;;15.70;71.30;;;;;;5101763;28;20279;-71
2021/05/05 00:47:25;;;;;;;0.90;0.90;;;15.70;71.20;;;;;;5117153;27;20566;-72
2021/05/05 00:49:51;;;;;;;1.33;1.02;;;15.60;72.00;;;;;;5098599;28;20191;-72
2021/05/05 00:52:17;;;;;;;1.17;0.75;;;15.60;72.10;;;;;;5099563;28;20554;-72
2021/05/05 00:54:43;;;;;;;0.98;0.98;;;15.60;72.10;;;;;;5102808;28;20184;-71
2021/05/05 00:57:08;;;;;;;0.90;0.90;;;15.60;71.50;;;;;;5098714;28;20261;-70
2021/05/05 00:59:34;;;;;;;0.77;0.77;;;15.60;71.40;;;;;;5099029;28;20173;-71
2021/05/05 01:02:00;;;;;;;0.50;0.50;;;15.60;72.50;;;;;;5105065;28;20204;-71
2021/05/05 01:04:26;;;;;;;0.68;0.68;;;15.60;71.30;;;;;;5101037;28;20315;-71
2021/05/05 01:06:53;;;;;;;0.80;0.80;;;15.60;72.00;;;;;;5098716;28;20265;-70
2021/05/05 01:09:18;;;;;;;2.10;0.82;;;15.50;71.90;;;;;;5102180;28;20194;-71
2021/05/05 01:11:45;;;;;;;1.08;1.05;;;15.50;72.10;;;;;;5102266;28;20269;-71
2021/05/05 01:14:10;;;;;;;0.70;0.70;;;15.50;72.50;;;;;;5099842;28;20264;-72
2021/05/05 01:19:21;;;;;;;0.70;0.70;;;15.30;74.20;;;;;;5099890;28;20230;-71
2021/05/05 01:21:47;;;;;;;0.80;0.80;;;15.30;74.40;;;;;;5103190;28;20654;-71
2021/05/05 01:24:13;;;;;;;0.90;0.90;;;15.20;74.90;;;;;;5100193;28;20185;-71
2021/05/05 01:26:39;;;;;;;0.85;0.80;;;15.10;75.10;;;;;;5099676;28;20177;-71
2021/05/05 01:29:06;;;;;;;1.70;0.93;;;15.10;75.10;;;;;;5099801;28;20185;-71
2021/05/05 01:31:31;;;;;;;0.88;0.88;;;15.00;75.70;;;;;;5103409;28;20210;-71
2021/05/05 01:33:58;;;;;;;1.27;0.88;;;15.00;75.30;;;;;;5101526;28;20265;-71
2021/05/05 01:36:30;;;;;;;1.73;1.23;;;14.90;75.50;;;;;;5097917;28;20190;-71
2021/05/05 01:38:57;;;;;;;0.60;0.60;;;14.90;75.80;;;;;;5099366;28;20178;-71
2021/05/05 01:41:22;;;;;;;1.90;1.00;;;14.90;75.90;;;;;;5094045;28;20693;-71
2021/05/05 01:43:49;;;;;;;0.90;0.90;;;14.90;76.00;;;;;;5103452;28;20194;-71
2021/05/05 01:46:18;;;;;;;0.90;0.90;;;14.90;76.50;;;;;;5102489;28;20244;-71
2021/05/05 01:48:44;;;;;;;1.30;1.10;;;14.80;76.80;;;;;;5105308;28;20178;-71
2021/05/05 01:51:10;;;;;;;1.10;1.00;;;14.80;76.90;;;;;;5101279;28;20286;-71
2021/05/05 01:53:35;;;;;;;1.48;0.85;;;14.80;76.90;;;;;;5101768;28;20208;-71
2021/05/05 01:56:01;;;;;;;0.93;0.93;;;14.80;76.20;;;;;;5097712;28;20197;-72
2021/05/05 01:58:27;;;;;;;3.05;1.42;;;14.80;77.30;;;;;;5097381;28;20194;-71
2021/05/05 02:00:53;;;;;;;1.30;1.20;;;14.70;77.50;;;;;;5096925;28;20748;-72
2021/05/05 02:03:18;;;;;;;0.90;0.90;;;14.60;78.10;;;;;;5101447;28;20186;-72
2021/05/05 02:05:44;;;;;;;1.73;0.68;;;14.60;77.50;;;;;;5097565;28;20186;-72
2021/05/05 02:08:10;;;;;;;0.90;0.90;;;14.60;78.30;;;;;;5098454;28;20706;-71
2021/05/05 02:10:36;;;;;;;1.15;1.10;;;14.60;78.40;;;;;;5099525;28;20202;-71
2021/05/05 02:13:02;;;;;;;1.05;1.05;;;14.60;77.90;;;;;;5102563;28;20192;-71
2021/05/05 02:15:28;;;;;;;0.98;0.98;;;14.60;77.70;;;;;;5099059;28;20182;-72
2021/05/05 02:17:54;;;;;;;1.85;0.90;;;14.60;78.30;;;;;;5099440;28;20177;-72
2021/05/05 02:20:26;;;;;;;1.10;1.10;;;14.50;79.40;;;;;;5096064;28;20182;-72
2021/05/05 02:22:52;;;;;;;1.10;1.10;;;14.50;78.60;;;;;;5103661;28;20190;-71
2021/05/05 02:25:18;;;;;;;1.15;1.15;;;14.50;78.90;;;;;;5099924;28;20655;-71
2021/05/05 02:27:44;;;;;;;1.48;0.93;;;14.50;78.90;;;;;;5101507;28;20188;-71
2021/05/05 02:30:12;;;;;;;1.00;0.90;;;14.60;78.80;;;;;;5097119;28;20666;-72
2021/05/05 02:32:40;;;;;;;0.98;0.98;;;14.50;79.00;;;;;;5101667;28;20181;-72
2021/05/05 02:35:08;;;;;;;1.05;1.05;;;14.60;78.20;;;;;;5102217;28;20188;-71
2021/05/05 02:37:35;;;;;;;1.23;1.23;;;14.60;79.00;;;;;;5098287;28;20485;-72
2021/05/05 02:40:02;;;;;;;1.25;1.13;;;14.60;79.10;;;;;;5099807;28;20213;-72
2021/05/05 02:42:27;;;;;;;1.27;1.20;;;14.60;79.50;;;;;;5100526;28;20184;-73
2021/05/05 02:44:53;;;;;;;1.85;1.20;;;14.60;78.60;;;;;;5098708;28;20182;-72
2021/05/05 02:47:23;;;;;;;1.25;1.25;;;14.60;79.40;;;;;;5101280;28;20212;-72
2021/05/05 02:49:50;;;;;;;1.27;1.27;;;14.60;79.20;;;;;;5091767;28;20190;-72
2021/05/05 02:52:16;;;;;;;1.25;1.25;;;14.60;79.10;;;;;;5102570;28;20255;-72
2021/05/05 02:54:42;;;;;;;1.52;1.48;;;14.50;79.70;;;;;;5089290;28;20181;-72
2021/05/05 02:57:08;;;;;;;1.30;1.30;;;14.50;79.80;;;;;;5101342;28;20301;-72
2021/05/05 02:59:34;;;;;;;1.10;1.10;;;14.50;79.00;;;;;;5097674;28;20186;-72
2021/05/05 03:02:00;;;;;;;2.47;1.25;;;14.50;79.20;;;;;;5094936;28;20205;-72
2021/05/05 03:04:26;;;;;;;0.85;0.85;;;14.50;78.90;;;;;;5099027;28;20637;-71
2021/05/05 03:06:53;;;;;;;1.30;1.08;;;14.50;79.10;;;;;;5099963;28;20196;-72
2021/05/05 03:09:21;;;;;;;1.20;1.20;;;14.50;78.90;;;;;;5097796;28;20182;-72
2021/05/05 03:11:47;;;;;;;1.27;1.17;;;14.50;78.80;;;;;;5097153;28;20209;-71
2021/05/05 03:14:13;;;;;;;1.42;1.33;;;14.50;79.30;;;;;;5094651;28;20686;-72
2021/05/05 03:16:39;;;;;;;1.35;1.25;;;14.50;79.00;;;;;;5101612;28;20185;-72
2021/05/05 03:19:05;;;;;;;1.17;1.17;;;14.50;78.90;;;;;;5102087;28;20183;-71
2021/05/05 03:21:31;;;;;;;2.53;1.05;;;14.50;79.00;;;;;;5095392;28;20186;-72
2021/05/05 03:23:57;;;;;;;1.00;1.00;;;14.40;78.90;;;;;;5098409;28;20262;-72
2021/05/05 03:26:22;;;;;;;1.05;1.05;;;14.50;79.10;;;;;;5101022;28;20273;-72
2021/05/05 03:28:48;;;;;;;1.30;1.23;;;14.50;79.00;;;;;;5093523;28;20645;-72
2021/05/05 03:31:14;;;;;;;1.10;1.10;;;14.50;79.00;;;;;;5093819;28;21268;-72
2021/05/05 03:33:40;;;;;;;1.20;1.20;;;14.50;78.90;;;;;;5099820;28;21429;-72
2021/05/05 03:36:06;;;;;;;2.03;1.13;;;14.50;79.00;;;;;;5098579;28;20181;-72
2021/05/05 03:38:32;;;;;;;1.60;1.50;;;14.50;79.00;;;;;;5095368;28;20242;-71
2021/05/05 03:40:58;;;;;;;1.23;1.23;;;14.50;79.00;;;;;;5097392;28;20186;-71
2021/05/05 03:43:24;;;;;;;1.25;1.25;;;14.50;78.90;;;;;;5097269;28;20184;-72
2021/05/05 03:45:50;;;;;;;2.95;1.23;;;14.50;78.90;;;;;;5099323;28;20182;-72
2021/05/05 03:48:16;;;;;;;1.65;1.55;;;14.50;79.30;;;;;;5098828;28;20196;-72
2021/05/05 03:50:42;;;;;;;1.60;1.60;;;14.50;79.40;;;;;;5096907;28;20206;-71
2021/05/05 03:53:08;;;;;;;1.50;1.50;;;14.50;80.10;;;;;;5100128;28;20257;-71
2021/05/05 03:55:33;;;;;;;1.92;1.58;;;14.50;79.70;;;;;;5105177;28;20649;-71
2021/05/05 03:57:59;;;;;;;1.58;1.52;;;14.50;80.30;;;;;;5104629;28;20181;-72
2021/05/05 04:00:26;;;;;;;1.75;1.63;;;14.50;80.00;;;;;;5102715;28;20196;-72
2021/05/05 04:02:51;;;;;;;3.03;1.58;;;14.50;80.30;;;;;;5099432;28;20182;-71
2021/05/05 04:05:17;;;;;;;1.38;1.38;;;14.50;81.10;;;;;;5102424;28;20219;-70
2021/05/05 04:07:43;;;;;;;1.65;1.40;;;14.50;80.50;;;;;;5103662;28;20177;-72
2021/05/05 04:10:09;;;;;;;1.48;1.30;;;14.60;80.40;;;;;;5103617;28;20189;-72
2021/05/05 04:12:36;;;;;;;1.60;1.50;;;14.60;80.40;;;;;;5101971;28;20181;-72
2021/05/05 04:15:04;;;;;;;3.05;1.55;;;14.60;80.30;;;;;;5101611;28;20253;-72
2021/05/05 04:17:29;;;;;;;1.30;1.30;;;14.60;80.20;;;;;;5103141;28;20178;-70
2021/05/05 04:19:57;;;;;;;1.52;1.52;;;14.70;81.20;;;;;;5102643;28;20234;-72
2021/05/05 04:22:24;;;;;;;3.17;1.20;;;14.70;81.00;;;;;;5098485;28;20612;-72
2021/05/05 04:24:51;;;;;;;2.45;1.65;;;14.70;80.40;;;;;;5104419;28;20209;-72
2021/05/05 04:27:17;;;;;;;1.63;1.52;;;14.80;80.70;;;;;;5100922;28;20494;-72
2021/05/05 04:29:43;;;;;;;1.95;1.85;;;14.80;81.00;;;;;;5102940;28;20185;-72
2021/05/05 04:32:10;;;;;;;2.10;1.63;;;14.80;80.70;;;;;;5102696;28;20220;-72
2021/05/05 04:34:36;;;;;;;2.22;1.92;;;14.90;80.80;;;;;;5098909;28;20324;-71
2021/05/05 04:37:03;;;;;;;1.77;1.67;;;14.90;80.50;;;;;;5101061;28;20260;-73
2021/05/05 04:39:29;;;;;;;6.28;1.98;;;14.90;80.50;;;;;;5100189;28;20174;-73
2021/05/05 04:41:55;;;;;;;3.00;2.30;;;15.00;80.50;;;;;;5100131;28;20628;-72
2021/05/05 04:44:20;;;;;;;4.10;2.30;;;15.00;80.20;;;;;;5107073;28;20178;-72
2021/05/05 04:46:46;;;;;;;5.95;2.10;;;15.00;80.20;;;;;;5097388;28;20201;-72
2021/05/05 04:49:12;;;;;;;2.92;2.13;;;15.10;80.30;;;;;;5099460;28;20192;-72
2021/05/05 04:51:39;;;;;;;2.05;1.95;;;15.10;80.30;;;;;;5099445;28;20214;-72
2021/05/05 04:54:07;;;;;;;1.83;1.73;;;15.10;80.20;;;;;;5100647;28;20176;-72
2021/05/05 04:56:33;;;;;;;2.25;2.15;;;15.20;80.30;;;;;;5097241;28;20178;-72
2021/05/05 04:58:58;;;;;;;2.22;2.13;;;15.20;81.30;;;;;;5095702;28;20178;-71
2021/05/05 05:01:24;;;;;;;2.60;2.50;;;15.20;80.80;;;;;;5095869;28;20694;-72
2021/05/05 05:03:50;;;;;;;2.88;2.50;;;15.20;80.50;;;;;;5103671;28;20217;-71
2021/05/05 05:06:15;;;;;;;3.85;2.47;;;15.20;81.40;;;;;;5095872;28;20181;-70
2021/05/05 05:08:41;;;;;;;2.60;2.45;;;15.20;81.00;;;;;;5103117;28;20230;-71
2021/05/05 05:11:10;;;;;;;2.92;2.80;;;15.30;81.20;;;;;;5095119;28;20206;-71
2021/05/05 05:13:35;;;;;;;4.72;2.80;;;15.30;81.30;;;;;;5101875;28;20197;-71
2021/05/05 05:16:01;;;;;;;4.03;2.72;;;15.40;81.20;;;;;;5099938;28;20200;-70
2021/05/05 05:18:27;;;;;;;2.85;2.65;;;15.50;80.50;;;;;;5104086;28;20213;-70
2021/05/05 05:20:52;;;;;;;5.22;3.38;;;15.50;80.40;;;;;;5096094;28;20190;-71
2021/05/05 05:23:18;;;;;;;11.02;3.08;;;15.60;80.10;;;;;;5100822;28;20188;-71
2021/05/05 05:25:44;;;;;;;5.70;3.22;;;15.60;80.00;;;;;;5097775;28;20178;-71
2021/05/05 05:28:10;;;;;;;3.85;3.17;;;15.60;80.00;;;;;;5096497;28;20183;-71
2021/05/05 05:30:35;;;;;;;5.50;3.17;;;15.70;79.80;;;;;;5100151;28;20259;-71
2021/05/05 05:33:01;;;;;;;3.30;3.10;;;15.80;79.80;;;;;;5102021;28;20243;-70
2021/05/05 05:35:27;;;;;;;4.10;3.80;;;15.90;79.80;;;;;;5099449;28;20210;-70
2021/05/05 05:37:53;;;;;;;6.25;3.92;;;16.00;80.20;;;;;;5096882;28;20193;-70
2021/05/05 05:40:19;;;;;;;4.53;4.13;;;16.20;79.40;;;;;;5101904;28;20655;-71
2021/05/05 05:42:45;;;;;;;5.43;4.47;;;16.30;79.10;;;;;;5101939;28;20190;-69
2021/05/05 05:45:12;;;;;;;4.93;4.55;;;16.40;78.90;;;;;;5091056;28;20564;-70
2021/05/05 05:47:39;;;;;;;5.68;4.32;;;16.50;78.90;;;;;;5101744;28;20217;-71
2021/05/05 05:50:06;;;;;;;4.20;3.90;;;16.50;78.50;;;;;;5097288;28;20177;-73
2021/05/05 05:52:32;;;;;;;5.97;3.95;;;16.50;78.00;;;;;;5102269;28;20213;-72
2021/05/05 05:54:58;;;;;;;4.75;3.88;;;16.50;77.80;;;;;;5098638;28;20246;-74
2021/05/05 05:57:24;;;;;;;3.70;3.42;;;16.50;77.80;;;;;;5086117;28;20606;-73
2021/05/05 05:59:50;;;;;;;5.30;3.58;;;16.50;78.20;;;;;;5100393;28;20178;-74
2021/05/05 06:02:16;;;;;;;4.00;3.47;;;16.50;78.40;;;;;;5094323;28;21122;-71
2021/05/05 06:04:42;;;;;;;3.92;3.60;;;16.50;78.10;;;;;;5094713;28;20183;-72
2021/05/05 06:07:08;;;;;;;4.82;3.03;;;16.40;78.30;;;;;;5080720;28;20219;-73
2021/05/05 06:09:33;;;;;;;2.88;2.70;;;16.50;79.20;;;;;;5102829;28;20182;-74
2021/05/05 06:11:59;;;;;;;4.43;3.05;;;16.50;78.20;;;;;;5101060;28;20229;-71
2021/05/05 06:14:25;;;;;;;6.57;2.92;;;16.50;78.60;;;;;;5095613;28;20282;-72
2021/05/05 06:16:50;;;;;;;3.05;2.70;;;16.50;78.40;;;;;;5104835;28;20209;-72
2021/05/05 06:19:16;;;;;;;3.60;3.25;;;16.60;78.70;;;;;;5100958;28;20200;-72
2021/05/05 06:21:42;;;;;;;3.20;3.03;;;16.60;78.50;;;;;;5105207;28;20239;-72
2021/05/05 06:24:08;;;;;;;6.03;2.78;;;16.70;78.70;;;;;;5102871;28;20268;-71
2021/05/05 06:26:34;;;;;;;2.70;2.60;;;16.80;78.10;;;;;;5104429;28;20186;-74
2021/05/05 06:28:59;;;;;;;3.55;2.88;;;16.80;77.80;;;;;;5070442;28;20209;-74
2021/05/05 06:31:25;;;;;;;2.42;2.33;;;16.90;77.50;;;;;;5089986;28;20222;-72
2021/05/05 06:33:51;;;;;;;2.72;2.60;;;16.90;77.10;;;;;;5089999;28;20182;-73
2021/05/05 06:36:17;;;;;;;2.47;2.35;;;16.80;77.30;;;;;;5099453;28;20177;-72
2021/05/05 06:38:42;;;;;;;5.78;3.05;;;16.80;77.20;;;;;;5095331;28;20193;-77
2021/05/05 06:41:08;;;;;;;3.13;2.78;;;16.80;77.60;;;;;;5099727;28;20193;-76
2021/05/05 06:43:35;;;;;;;7.57;2.05;;;16.80;77.40;;;;;;5101902;28;20220;-76
2021/05/05 06:46:02;;;;;;;2.47;2.38;;;16.70;77.30;;;;;;5096885;28;20202;-74
2021/05/05 06:48:28;;;;;;;2.03;1.90;;;16.70;77.20;;;;;;5096187;28;20699;-76
2021/05/05 06:50:53;;;;;;;4.40;2.70;;;16.70;77.20;;;;;;5097382;28;20202;-74
2021/05/05 06:53:19;;;;;;;2.05;1.95;;;16.70;77.40;;;;;;5096009;28;21003;-75
2021/05/05 06:55:45;;;;;;;2.03;1.92;;;16.70;77.20;;;;;;5074605;28;20189;-73
2021/05/05 06:58:11;;;;;;;2.28;2.17;;;16.70;77.30;;;;;;5089311;28;20191;-75
2021/05/05 07:00:37;;;;;;;2.45;2.38;;;16.70;77.20;;;;;;5094275;28;20224;-76
2021/05/05 07:03:03;;;;;;;1.92;1.70;;;16.80;77.30;;;;;;5079269;28;20946;-73
2021/05/05 07:05:29;;;;;;;2.13;2.03;;;16.80;77.30;;;;;;5095013;28;20186;-74
2021/05/05 07:07:54;;;;;;;2.83;2.63;;;16.80;76.90;;;;;;5097042;28;20257;-75
2021/05/05 07:10:20;;;;;;;2.00;1.98;;;16.80;77.00;;;;;;5097828;28;20259;-74
2021/05/05 07:12:46;;;;;;;2.10;1.90;;;16.90;76.90;;;;;;5091988;28;20269;-79
2021/05/05 07:15:12;;;;;;;2.53;1.60;;;16.90;77.40;;;;;;5074564;28;20214;-78
2021/05/05 07:17:38;;;;;;;1.98;1.80;;;16.90;77.00;;;;;;5094727;28;20683;-78
2021/05/05 07:20:05;;;;;;;2.90;2.13;;;17.00;77.30;;;;;;5093809;28;20185;-78
2021/05/05 07:22:30;;;;;;;5.35;1.90;;;17.10;77.10;;;;;;5097564;28;20184;-79
2021/05/05 07:24:56;;;;;;;1.50;1.50;;;17.10;77.20;;;;;;5095879;28;20864;-75
2021/05/05 07:27:22;;;;;;;3.80;2.33;;;17.20;77.00;;;;;;5077112;28;20201;-78
2021/05/05 07:29:48;;;;;;;2.58;2.38;;;17.20;76.60;;;;;;5093116;28;20181;-77
2021/05/05 07:32:14;;;;;;;2.70;2.50;;;17.30;76.70;;;;;;5089673;28;20284;-76
2021/05/05 07:34:41;;;;;;;2.30;2.00;;;17.40;76.70;;;;;;5091431;28;20179;-77
2021/05/05 07:37:13;;;;;;;2.78;2.58;;;17.50;76.70;;;;;;5097822;28;20178;-77
2021/05/05 07:47:38;;;;;;;2.35;2.25;;;18.10;75.50;;;;;;5086542;28;20185;-74
2021/05/05 07:50:09;;;;;;;2.55;2.30;;;18.20;74.60;;;;;;5099101;28;20268;-74
2021/05/05 07:52:35;;;;;;;2.13;2.03;;;18.30;73.60;;;;;;5094499;28;20175;-73
2021/05/05 07:55:01;;;;;;;2.38;1.98;;;18.30;73.70;;;;;;5092596;28;20174;-73
2021/05/05 07:57:27;;;;;;;2.42;2.22;;;18.40;73.70;;;;;;5098390;28;20174;-74
2021/05/05 07:59:56;;;;;;;3.42;1.90;;;18.50;73.50;;;;;;5094585;28;20190;-74
2021/05/05 08:02:22;;;;;;;2.22;2.13;;;18.60;73.70;;;;;;5094130;28;20200;-72
2021/05/05 08:04:50;;;;;;;2.40;2.20;;;18.70;73.20;;;;;;5100459;28;20193;-73
2021/05/05 08:07:19;;;;;;;1.88;1.77;;;18.80;73.00;;;;;;5101958;28;20173;-73
2021/05/05 08:09:45;;;;;;;1.98;1.92;;;18.90;72.80;;;;;;5100565;28;20181;-73
2021/05/05 08:12:12;;;;;;;5.25;2.10;;;19.10;72.60;;;;;;5092151;28;20268;-74
2021/05/05 08:14:39;;;;;;;2.35;2.17;;;19.20;72.50;;;;;;5093713;28;20214;-74
2021/05/05 08:17:05;;;;;;;2.15;2.13;;;19.30;72.30;;;;;;5094449;28;20644;-74
2021/05/05 08:19:31;;;;;;;2.80;2.20;;;19.40;71.80;;;;;;5095175;28;20202;-74
2021/05/05 08:21:56;;;;;;;2.20;2.10;;;19.40;71.70;;;;;;5093549;28;20643;-74
2021/05/05 08:24:22;;;;;;;2.20;2.08;;;19.50;71.40;;;;;;5093686;28;20178;-74
2021/05/05 08:26:48;;;;;;;5.28;2.05;;;19.60;71.50;;;;;;5096712;28;20262;-74
2021/05/05 08:29:14;;;;;;;3.70;1.77;;;19.70;70.70;;;;;;5089809;28;20614;-74
2021/05/05 08:31:40;;;;;;;2.38;2.28;;;19.80;70.30;;;;;;5090036;28;20221;-75
2021/05/05 08:34:06;;;;;;;2.50;2.00;;;19.90;70.60;;;;;;5089393;28;20189;-74
2021/05/05 08:36:32;;;;;;;1.95;1.85;;;20.00;70.30;;;;;;5090977;28;20580;-74
2021/05/05 08:38:58;;;;;;;1.77;1.77;;;20.20;69.50;;;;;;5097342;28;20177;-75
2021/05/05 08:41:24;;;;;;;2.50;1.80;;;20.40;68.70;;;;;;5084177;28;20189;-74
2021/05/05 08:43:50;;;;;;;3.17;2.00;;;20.70;68.70;;;;;;5103567;28;20189;-74
2021/05/05 08:46:17;;;;;;;1.70;1.60;;;20.90;68.10;;;;;;5107303;28;20480;-74
2021/05/05 08:48:45;;;;;;;2.55;1.60;;;21.20;67.50;;;;;;5103602;28;20209;-74
2021/05/05 08:51:12;;;;;;;2.08;1.98;;;21.30;66.70;;;;;;5105470;28;20206;-74
2021/05/05 08:53:41;;;;;;;1.88;1.77;;;21.40;66.40;;;;;;5107465;28;20180;-74
2021/05/05 08:56:07;;;;;;;1.77;1.63;;;21.50;65.60;;;;;;5092435;28;20665;-74
2021/05/05 08:58:32;;;;;;;3.35;2.08;;;21.60;65.60;;;;;;5092630;28;20265;-74
2021/05/05 09:01:00;;;;;;;1.80;1.52;;;21.70;65.70;;;;;;5096647;28;20185;-74
2021/05/05 09:03:31;;;;;;;1.75;1.65;;;21.80;64.90;;;;;;5091776;28;20174;-74
2021/05/05 09:05:58;;;;;;;1.73;1.60;;;22.10;64.70;;;;;;5095262;28;20240;-74
2021/05/05 09:08:25;;;;;;;2.15;1.77;;;22.30;63.70;;;;;;5098384;28;20247;-74
2021/05/05 09:11:00;;;;;;;2.05;2.05;;;22.50;63.10;;;;;;5094464;28;20221;-74
2021/05/05 09:13:44;;;;;;;2.38;2.20;;;22.80;62.60;;;;;;5094202;28;20196;-74
2021/05/05 09:16:12;;;;;;;2.13;2.03;;;23.00;62.70;;;;;;5096480;28;20189;-74
2021/05/05 09:19:04;;;;;;;1.42;1.42;;;23.10;62.30;;;;;;5093680;28;20182;-75
2021/05/05 09:21:45;;;;;;;1.77;1.73;;;23.20;62.10;;;;;;5096163;28;20216;-74
2021/05/05 09:24:14;;;;;;;1.67;1.67;;;23.20;62.40;;;;;;5092290;28;20205;-73
2021/05/05 09:26:40;;;;;;;4.82;2.17;;;23.10;62.40;;;;;;5076969;28;20186;-74
2021/05/05 09:29:06;;;;;;;1.45;1.45;;;23.00;62.00;;;;;;5096204;28;20181;-74
2021/05/05 09:31:34;;;;;;;3.13;2.45;;;22.80;61.60;;;;;;5092433;28;20245;-75
2021/05/05 09:34:02;;;;;;;2.38;2.28;;;22.50;62.50;;;;;;5095672;28;20506;-75
2021/05/05 09:36:28;;;;;;;2.58;2.08;;;22.10;62.60;;;;;;5092495;28;21129;-75
2021/05/05 09:38:54;;;;;;;2.10;2.00;;;21.80;63.80;;;;;;5087717;28;20214;-76
2021/05/05 09:41:23;;;;;;;2.30;2.03;;;21.70;63.70;;;;;;5094091;28;20181;-76
2021/05/05 09:43:50;;;;;;;1.70;1.60;;;21.60;64.00;;;;;;5097101;28;20213;-76
2021/05/05 09:46:43;;;;;;;2.47;1.73;;;21.50;63.70;;;;;;5094319;28;20178;-75
2021/05/05 09:49:28;;;;;;;2.33;2.17;;;21.50;64.70;;;;;;5101490;28;20174;-74
2021/05/05 09:52:08;;;;;;;3.47;1.77;;;21.50;64.50;;;;;;5102080;28;20694;-75
2021/05/05 09:54:59;;;;;;;2.10;2.00;;;21.50;64.70;;;;;;5090711;28;20178;-75
2021/05/05 09:57:34;;;;;;;4.93;1.67;;;21.60;64.30;;;;;;5007805;28;20885;-74
2021/05/05 10:00:17;;;;;;;4.20;1.75;;;21.60;64.30;;;;;;5010262;28;20255;-74
2021/05/05 10:02:55;;;;;;;2.05;1.75;;;21.60;64.20;;;;;;4996824;28;20228;-76
2021/05/05 10:05:23;;;;;;;1.83;1.75;;;21.60;63.80;;;;;;5012426;28;20195;-74
2021/05/05 10:07:55;;;;;;;4.80;1.80;;;21.60;64.10;;;;;;5010241;28;20185;-74
2021/05/05 10:10:32;;;;;;;2.15;1.95;;;21.60;63.80;;;;;;5003099;28;20208;-74
2021/05/05 10:13:03;;;;;;;2.20;2.10;;;21.60;63.90;;;;;;5006724;28;20196;-74
2021/05/05 10:15:34;;;;;;;2.92;1.98;;;21.40;64.30;;;;;;5005663;28;20207;-74
2021/05/05 10:18:01;;;;;;;1.92;1.90;;;21.30;64.40;;;;;;5011821;28;20263;-74
2021/05/05 10:20:29;;;;;;;4.05;1.92;;;21.30;64.70;;;;;;5008673;28;20194;-74
2021/05/05 10:22:57;;;;;;;1.92;1.70;;;21.20;65.20;;;;;;5013853;28;20222;-76
2021/05/05 10:25:23;;;;;;;2.08;1.98;;;21.20;65.40;;;;;;5009364;28;20626;-76
2021/05/05 10:27:50;;;;;;;2.65;2.25;;;21.20;65.70;;;;;;5008154;28;20668;-75
2021/05/05 10:30:20;;;;;;;1.83;1.73;;;21.20;66.10;;;;;;5004214;28;20910;-77
2021/05/05 10:32:47;;;;;;;2.17;1.77;;;21.30;65.40;;;;;;5009306;28;20283;-76
2021/05/05 10:35:18;;;;;;;1.80;1.70;;;21.40;65.00;;;;;;5076044;28;20191;-76
2021/05/05 10:37:45;;;;;;;3.92;2.25;;;21.60;64.70;;;;;;5095995;28;20188;-77
2021/05/05 10:40:15;;;;;;;4.57;1.92;;;21.70;64.30;;;;;;5098341;28;20239;-76
2021/05/05 10:42:53;;;;;;;2.10;2.00;;;21.80;64.60;;;;;;5102278;28;20189;-75
2021/05/05 10:45:31;;;;;;;2.17;2.00;;;22.00;64.50;;;;;;5075510;28;20268;-75
2021/05/05 10:48:10;;;;;;;2.17;2.08;;;22.20;63.70;;;;;;5098618;28;20273;-74
2021/05/05 10:50:49;;;;;;;2.60;2.50;;;22.30;64.30;;;;;;5094149;28;20710;-76
2021/05/05 10:53:16;;;;;;;2.58;2.38;;;22.40;64.90;;;;;;5093294;28;20901;-75
2021/05/05 10:55:51;;;;;;;2.40;2.30;;;22.50;64.90;;;;;;5097191;28;20184;-74
2021/05/05 10:58:26;;;;;;;4.07;2.33;;;22.60;64.20;;;;;;5090982;28;20208;-74
2021/05/05 11:01:06;;;;;;;5.53;2.10;;;23.00;63.50;;;;;;5091601;28;20671;-73
2021/05/05 11:03:47;;;;;;;1.73;1.65;;;23.80;63.50;;;;;;5094263;28;20941;-75
2021/05/05 11:06:32;;;;;;;1.77;1.75;;;24.90;60.90;;;;;;5089680;28;20178;-75
2021/05/05 11:09:09;;;;;;;4.43;1.58;;;26.00;58.60;;;;;;5092450;28;20184;-75
2021/05/05 11:11:41;;;;;;;1.55;1.45;;;27.00;57.30;;;;;;5093196;28;20224;-75
2021/05/05 11:14:08;;;;;;;1.77;1.67;;;28.20;55.80;;;;;;5093654;28;21366;-75
2021/05/05 11:16:52;;;;;;;1.85;1.50;;;28.90;54.10;;;;;;5094340;28;20182;-75
2021/05/05 11:19:40;;;;;;;1.80;1.70;;;29.00;51.40;;;;;;5090876;28;20293;-74
2021/05/05 11:22:06;;;;;;;0.90;0.90;;;29.40;51.80;;;;;;5094375;28;20227;-74
2021/05/05 11:24:38;;;;;;;1.48;1.38;;;30.10;51.80;;;;;;5075538;28;20178;-73
2021/05/05 11:27:06;;;;;;;2.60;1.17;;;30.40;49.80;;;;;;5094979;28;20178;-73
2021/05/05 11:29:36;;;;;;;1.45;1.35;;;30.50;50.10;;;;;;5095835;28;20179;-73
2021/05/05 11:32:06;;;;;;;1.00;1.00;;;31.10;49.50;;;;;;5096241;28;20218;-73
2021/05/05 11:34:35;;;;;;;1.23;1.20;;;31.90;49.00;;;;;;5089645;28;20208;-73
2021/05/05 11:37:00;;;;;;;1.08;1.08;;;32.60;46.40;;;;;;5088715;28;20182;-72
2021/05/05 11:39:44;;;;;;;1.35;1.17;;;33.10;47.40;;;;;;5090106;28;20185;-74
2021/05/05 11:42:39;;;;;;;1.77;1.13;;;33.30;46.30;;;;;;5075142;28;20184;-73
2021/05/05 11:45:13;;;;;;;4.30;1.35;;;32.40;45.30;;;;;;4988652;28;20201;-75
2021/05/05 11:47:41;;;;;;;1.63;1.00;;;31.80;47.40;;;;;;5010489;28;20268;-72
2021/05/05 11:50:10;;;;;;;3.10;0.90;;;32.10;48.10;;;;;;4988291;28;20692;-72
2021/05/05 11:52:41;;;;;;;1.00;1.00;;;32.70;47.10;;;;;;5007457;28;20197;-73
2021/05/05 11:55:07;;;;;;;1.27;0.77;;;33.10;45.10;;;;;;5005670;28;20220;-73
2021/05/05 11:57:37;;;;;;;0.70;0.70;;;32.40;45.50;;;;;;5006681;28;20216;-73
2021/05/05 12:00:31;;;;;;;0.68;0.68;;;31.70;45.90;;;;;;5005949;28;20263;-73
2021/05/05 12:03:06;;;;;;;1.65;0.50;;;30.80;45.10;;;;;;5005564;28;20196;-74
2021/05/05 12:05:36;;;;;;;3.83;0.65;;;30.20;47.00;;;;;;5005386;28;20352;-75
2021/05/05 12:08:16;;;;;;;2.58;0.70;;;29.80;48.30;;;;;;5010023;28;20204;-73
2021/05/05 12:10:46;;;;;;;1.23;0.73;;;29.50;47.80;;;;;;5000322;28;20216;-73
2021/05/05 12:13:17;;;;;;;0.63;0.40;;;29.20;47.90;;;;;;5007920;28;20231;-73
2021/05/05 12:15:53;;;;;;;0.40;0.40;;;28.70;48.40;;;;;;5013786;28;20368;-74
2021/05/05 12:18:25;;;;;;;0.57;0.57;;;28.10;47.50;;;;;;5015513;28;20180;-74
2021/05/05 12:20:53;;;;;;;1.42;0.60;;;27.40;48.30;;;;;;5031238;28;20193;-74
2021/05/05 12:23:19;;;;;;;1.58;0.50;;;26.70;49.60;;;;;;5098421;28;20188;-74
2021/05/05 12:25:45;;;;;;;3.55;0.68;;;26.30;50.20;;;;;;5098155;28;20270;-73
2021/05/05 12:28:17;;;;;;;1.60;0.60;;;26.30;49.60;;;;;;5085174;28;20887;-73
2021/05/05 12:30:46;;;;;;;2.47;0.45;;;26.30;50.60;;;;;;5099276;28;20206;-73
2021/05/05 12:33:14;;;;;;;2.85;0.60;;;26.60;49.60;;;;;;5104018;28;20184;-74
2021/05/05 12:35:40;;;;;;;1.00;0.30;;;27.20;49.50;;;;;;5101093;28;20177;-73
2021/05/05 12:38:11;;;;;;;0.40;0.40;;;27.70;48.90;;;;;;5103760;28;20666;-74
2021/05/05 12:40:38;;;;;;;0.40;0.40;;;27.70;48.20;;;;;;5097118;28;20175;-73
2021/05/05 12:43:12;;;;;;;0.40;0.40;;;27.10;47.70;;;;;;5104040;28;20565;-74
2021/05/05 12:45:38;;;;;;;0.35;0.35;;;26.90;48.90;;;;;;5103561;28;20179;-74
2021/05/05 12:48:04;;;;;;;2.47;0.40;;;26.70;49.20;;;;;;5103597;28;20174;-74
2021/05/05 12:50:41;;;;;;;1.45;0.50;;;26.60;49.90;;;;;;5102039;28;20185;-73
2021/05/05 12:53:08;;;;;;;1.00;0.30;;;26.50;50.40;;;;;;5097102;28;20204;-73
2021/05/05 12:55:37;;;;;;;1.75;0.50;;;26.60;49.80;;;;;;5100178;28;20265;-75
2021/05/05 12:58:07;;;;;;;4.05;0.40;;;26.60;50.10;;;;;;5099333;28;20323;-73
2021/05/05 13:00:34;;;;;;;3.58;0.50;;;26.70;50.60;;;;;;5099506;28;20257;-74
2021/05/05 13:03:07;;;;;;;1.45;0.55;;;27.10;50.20;;;;;;5097146;28;20636;-73